Decoded Metar for GMFF (FEZ in MOROCCO) (IATA:FEZ) | Meteo·Mobile Aviation Weather
aviador You're here:

GMFF Decoded Metar

FEZ in MOROCCO
Report Time2019-06-26 22:00:00
UTC Time2019-06-26 22:14:17
Flight Rules vfr VFR
Wind270° at 07 kt
W.Decomp.*RWY 27: 7.0 kt HW 0.1 kt RCW
Visibility9999 m
Phenomena:N/A
Clouds:N/A
Expected CloudBase > 1,600 ft AGL from Temp-Dew spread
CeilingNone
Temp21°C (ISA +10)
Dew Point17°C (78% RH)
AAT20.9°C
QNH1019 hPa
Density Alt3,100 ft
Elevation1,900 ft
Report Wrong Elevation
Raw Report
GMFF 262200Z 27007KT CAVOK 21/17 Q1019 NOSIG=

Extra information for GMFF:More info

Metar Taf Metar & Taf Last 4 Metars F.Rules Stats Wind Profile Meteogram Temp Stats Airport Information Weather charts Add Link Nearby VenuesMetar ALERT Operation Metar Decoded Social comments